ADDS METAR Data

Data at: 0747 UTC 24 Oct 2017

METAR for:KPVD (Providence/Green Mem, RI, US)
Text:KPVD 240651Z 17011KT 10SM SCT046 OVC065 19/18 A3008 RMK AO2 SLP186 T01940178
Temperature: 19.4°C ( 67°F)
Dewpoint: 17.8°C ( 64°F) [RH = 90%]
Pressure (altimeter):30.08 inches Hg (1018.7 mb) [Sea level pressure: 1018.6 mb]
Winds:from the S (170 degrees) at 13 MPH (11 knots; 5.7 m/s)
Visibility:10 or more sm (16+ km)
Ceiling:6500 feet AGL
Clouds: scattered clouds at 4600 feet AGL, overcast cloud deck at 6500 feet AGL